createdAt,value
2022-10-11T04:05:48.504Z,10.68
2022-10-11T04:08:51.463Z,10.73
2022-10-11T04:11:53.844Z,10.69
2022-10-11T04:14:56.547Z,10.77
2022-10-11T04:17:59.034Z,10.76
2022-10-11T04:21:01.842Z,10.81
2022-10-11T04:24:04.570Z,10.83
2022-10-11T04:27:07.328Z,10.86
2022-10-11T04:30:11.264Z,10.95
2022-10-11T04:33:14.422Z,10.90
2022-10-11T04:36:16.837Z,10.96
2022-10-11T04:39:19.563Z,10.95
2022-10-11T04:42:22.171Z,10.88
2022-10-11T04:45:24.917Z,10.84
2022-10-11T04:48:27.444Z,10.84
2022-10-11T04:51:30.396Z,10.90
2022-10-11T04:54:32.952Z,10.90
2022-10-11T04:57:35.725Z,10.82
2022-10-11T05:00:38.169Z,10.88
2022-10-11T05:03:41.159Z,10.87
2022-10-11T05:06:43.642Z,10.86
2022-10-11T05:09:46.369Z,10.87
2022-10-11T05:12:48.803Z,10.91
2022-10-11T05:15:51.791Z,11.00
2022-10-11T05:18:54.292Z,11.05
2022-10-11T05:21:57.439Z,11.15
2022-10-11T05:24:59.921Z,11.17
2022-10-11T05:28:02.647Z,11.26
2022-10-11T05:31:05.750Z,11.35
2022-10-11T05:34:08.561Z,11.51
2022-10-11T05:37:11.045Z,11.60
2022-10-11T05:40:13.834Z,11.61
2022-10-11T05:43:16.422Z,11.66
2022-10-11T05:46:19.230Z,11.67
2022-10-11T05:49:21.766Z,11.84
2022-10-11T05:52:24.586Z,11.90
2022-10-11T05:55:27.541Z,12.00
2022-10-11T05:58:31.150Z,11.88
2022-10-11T06:01:33.764Z,11.94
2022-10-11T06:04:37.209Z,11.87
2022-10-11T06:07:39.840Z,11.81
2022-10-11T06:10:42.671Z,11.83
2022-10-11T06:13:45.150Z,11.93
2022-10-11T06:16:47.839Z,11.97
2022-10-11T06:19:51.330Z,12.16
2022-10-11T06:22:54.164Z,12.29
2022-10-11T06:26:02.209Z,12.47
2022-10-11T06:29:05.916Z,12.64
2022-10-11T06:32:08.346Z,12.71
2022-10-11T06:35:11.139Z,12.76
2022-10-11T06:38:13.745Z,12.90
2022-10-11T06:41:18.672Z,12.95
2022-10-11T06:44:21.092Z,12.92
2022-10-11T06:47:23.848Z,12.92
2022-10-11T06:50:47.522Z,12.97
2022-10-11T06:53:50.856Z,13.02
2022-10-11T06:56:53.353Z,13.11
2022-10-11T06:59:56.208Z,13.12
2022-10-11T07:02:58.738Z,13.29
2022-10-11T07:06:03.758Z,13.41
2022-10-11T07:09:07.922Z,13.53
2022-10-11T07:12:10.710Z,13.59
2022-10-11T07:15:13.161Z,13.63
2022-10-11T07:18:15.922Z,13.76
2022-10-11T07:21:18.468Z,13.94
2022-10-11T07:24:21.251Z,14.16
2022-10-11T07:27:23.799Z,14.33
2022-10-11T07:30:26.680Z,14.57
2022-10-11T07:33:29.089Z,14.33
2022-10-11T07:36:32.031Z,14.42
2022-10-11T07:39:34.872Z,14.68
2022-10-11T07:42:37.999Z,15.08
2022-10-11T07:45:41.859Z,15.33
2022-10-11T07:48:44.761Z,15.74
2022-10-11T07:51:47.330Z,15.87
2022-10-11T07:54:50.091Z,16.17
2022-10-11T07:57:52.588Z,16.21
2022-10-11T08:00:55.688Z,15.91
2022-10-11T08:03:59.156Z,15.73
2022-10-11T08:07:01.584Z,15.82
2022-10-11T08:10:06.197Z,15.98
2022-10-11T08:13:08.729Z,15.97
2022-10-11T08:16:12.736Z,15.92
2022-10-11T08:19:16.187Z,16.00
2022-10-11T08:22:18.999Z,15.86
2022-10-11T08:25:21.488Z,15.90
2022-10-11T08:28:24.724Z,16.07
2022-10-11T08:31:27.172Z,16.16
2022-10-11T08:34:29.859Z,16.38
2022-10-11T08:37:32.261Z,16.49
2022-10-11T08:40:35.551Z,16.64
2022-10-11T08:44:06.114Z,16.62
2022-10-11T08:47:21.101Z,16.95
2022-10-11T08:50:24.177Z,17.16
2022-10-11T08:53:51.720Z,17.03
2022-10-11T08:56:54.368Z,17.42
2022-10-11T09:00:05.132Z,17.53
2022-10-11T09:03:09.339Z,17.59
2022-10-11T09:06:16.265Z,17.64
2022-10-11T09:09:21.861Z,17.82
2022-10-11T09:13:04.547Z,17.52
2022-10-11T09:16:17.695Z,17.64
2022-10-11T09:19:51.570Z,17.81
2022-10-11T09:23:14.107Z,18.06
2022-10-11T09:26:31.161Z,18.33
2022-10-11T09:30:02.552Z,18.63
2022-10-11T09:33:33.193Z,18.71
2022-10-11T09:37:00.126Z,18.92
2022-10-11T09:40:12.000Z,19.09
2022-10-11T09:43:14.569Z,19.14
2022-10-11T09:46:31.747Z,19.31
2022-10-11T09:49:42.769Z,19.67
2022-10-11T09:53:05.131Z,19.54
2022-10-11T09:56:08.322Z,19.64
2022-10-11T09:59:35.140Z,19.36
2022-10-11T10:02:47.028Z,19.63
2022-10-11T10:06:22.110Z,19.62
2022-10-11T10:09:30.454Z,19.86
2022-10-11T10:12:33.247Z,19.85
2022-10-11T10:15:38.105Z,20.56
2022-10-11T10:18:59.667Z,20.64
2022-10-11T10:22:02.181Z,21.20
2022-10-11T10:25:08.117Z,21.63
2022-10-11T10:28:21.009Z,21.87
2022-10-11T10:31:29.746Z,22.24
2022-10-11T10:34:36.426Z,21.93
2022-10-11T10:37:44.041Z,22.53
2022-10-11T10:40:56.727Z,22.47
2022-10-11T10:44:00.799Z,22.75
2022-10-11T10:47:20.831Z,22.69
2022-10-11T10:50:45.641Z,22.18
2022-10-11T10:53:58.457Z,22.32
2022-10-11T10:57:04.389Z,22.45
2022-10-11T11:00:19.837Z,21.78
2022-10-11T11:03:34.027Z,22.58
2022-10-11T11:06:48.835Z,22.57
2022-10-11T11:09:59.732Z,22.73
2022-10-11T11:13:04.847Z,22.83
2022-10-11T11:16:18.694Z,23.95
2022-10-11T11:19:38.419Z,24.11
2022-10-11T11:22:47.695Z,24.10
2022-10-11T11:26:15.635Z,23.46
2022-10-11T11:29:43.604Z,23.62
2022-10-11T11:32:52.017Z,23.79
2022-10-11T11:36:01.389Z,23.25
2022-10-11T11:39:07.065Z,24.19
2022-10-11T11:42:18.041Z,24.41
2022-10-11T11:45:46.831Z,24.15
2022-10-11T11:48:52.778Z,24.50
2022-10-11T11:51:56.653Z,25.77
2022-10-11T11:55:16.689Z,27.09
2022-10-11T11:58:43.992Z,26.69
2022-10-11T12:02:11.741Z,24.84
2022-10-11T12:05:18.707Z,25.70
2022-10-11T12:08:27.584Z,25.88
2022-10-11T12:11:42.042Z,26.32
2022-10-11T12:14:44.784Z,26.61
2022-10-11T12:17:53.232Z,25.49
2022-10-11T12:21:06.122Z,24.26
2022-10-11T12:24:31.542Z,26.78
2022-10-11T12:27:43.366Z,28.35
2022-10-11T12:30:55.556Z,29.33
2022-10-11T12:34:01.118Z,29.03
2022-10-11T12:37:27.072Z,28.71
2022-10-11T12:40:45.866Z,27.37
2022-10-11T12:43:48.639Z,25.93
2022-10-11T12:46:51.058Z,25.53
2022-10-11T12:49:59.383Z,25.57
2022-10-11T12:53:18.248Z,25.28
2022-10-11T12:56:44.890Z,25.26
2022-10-11T12:59:47.471Z,25.12
2022-10-11T13:02:50.394Z,24.65
2022-10-11T13:06:01.331Z,24.08
2022-10-11T13:09:15.760Z,23.75
2022-10-11T13:12:21.839Z,23.40
2022-10-11T13:15:24.893Z,22.78
2022-10-11T13:18:27.378Z,22.35
2022-10-11T13:21:34.624Z,22.21
2022-10-11T13:24:39.756Z,22.09
2022-10-11T13:27:43.413Z,22.07
2022-10-11T13:30:53.226Z,22.16
2022-10-11T13:34:17.582Z,22.30
2022-10-11T13:37:25.575Z,22.31
2022-10-11T13:40:29.537Z,22.45
2022-10-11T13:43:32.841Z,22.18
2022-10-11T13:46:37.611Z,22.09
2022-10-11T13:49:45.814Z,21.68
2022-10-11T13:52:57.325Z,21.44
2022-10-11T13:56:04.365Z,21.51
2022-10-11T13:59:07.209Z,21.30
2022-10-11T14:02:20.215Z,21.09
2022-10-11T14:05:30.349Z,20.75
2022-10-11T14:08:42.275Z,20.68
2022-10-11T14:11:45.520Z,20.57
2022-10-11T14:14:48.110Z,20.52
2022-10-11T14:17:51.504Z,20.54
2022-10-11T14:20:54.337Z,20.14
2022-10-11T14:24:00.484Z,19.81
2022-10-11T14:27:05.958Z,19.80
2022-10-11T14:30:27.437Z,19.79
2022-10-11T14:33:30.184Z,19.74
2022-10-11T14:36:35.076Z,19.63
2022-10-11T14:39:37.787Z,19.62
2022-10-11T14:42:41.893Z,19.36
2022-10-11T14:45:44.390Z,19.26
2022-10-11T14:48:55.660Z,19.26
2022-10-11T14:51:59.341Z,19.24
2022-10-11T14:55:02.238Z,19.13
2022-10-11T14:58:06.095Z,19.00
2022-10-11T15:01:13.954Z,19.00
2022-10-11T15:04:16.627Z,18.99
2022-10-11T15:07:19.414Z,19.08
2022-10-11T15:10:27.454Z,19.08
2022-10-11T15:13:30.212Z,19.10
2022-10-11T15:16:33.397Z,19.06
2022-10-11T15:19:36.564Z,19.05
2022-10-11T15:22:39.102Z,18.99
2022-10-11T15:25:42.596Z,18.97
2022-10-11T15:28:45.940Z,18.90
2022-10-11T15:31:49.505Z,18.84
2022-10-11T15:34:52.023Z,18.80
2022-10-11T15:37:57.494Z,18.79
2022-10-11T15:41:00.222Z,18.68
2022-10-11T15:44:02.916Z,18.58
2022-10-11T15:47:05.412Z,18.54
2022-10-11T15:50:34.038Z,18.47
2022-10-11T15:53:36.837Z,18.43
